sensor_id;sensor_type;location;lat;lon;timestamp;pressure;altitude;pressure_sealevel;temperature;humidity
40954;BME280;26686;50.130;8.710;2023-03-08T00:02:11;98660.78;;;5.61;74.00
40954;BME280;26686;50.130;8.710;2023-03-08T00:07:12;98676.47;;;5.63;74.07
40954;BME280;26686;50.130;8.710;2023-03-08T00:12:14;98679.25;;;5.61;73.98
40954;BME280;26686;50.130;8.710;2023-03-08T00:17:19;98657.00;;;5.54;74.04
40954;BME280;26686;50.130;8.710;2023-03-08T00:22:20;98675.66;;;5.62;74.16
40954;BME280;26686;50.130;8.710;2023-03-08T00:27:22;98661.50;;;5.63;72.23
40954;BME280;26686;50.130;8.710;2023-03-08T00:32:24;98669.53;;;5.62;72.77
40954;BME280;26686;50.130;8.710;2023-03-08T00:37:26;98678.81;;;5.56;72.51
40954;BME280;26686;50.130;8.710;2023-03-08T00:42:28;98682.50;;;5.44;73.03
40954;BME280;26686;50.130;8.710;2023-03-08T00:47:29;98689.19;;;5.48;72.79
40954;BME280;26686;50.130;8.710;2023-03-08T00:52:31;98680.75;;;5.54;73.11
40954;BME280;26686;50.130;8.710;2023-03-08T00:57:32;98673.38;;;5.48;72.85
40954;BME280;26686;50.130;8.710;2023-03-08T01:02:33;98676.44;;;5.53;71.59
40954;BME280;26686;50.130;8.710;2023-03-08T01:07:35;98670.63;;;5.59;72.08
40954;BME280;26686;50.130;8.710;2023-03-08T01:12:36;98664.94;;;5.54;72.25
40954;BME280;26686;50.130;8.710;2023-03-08T01:17:38;98659.56;;;5.65;71.80
40954;BME280;26686;50.130;8.710;2023-03-08T01:22:40;98661.22;;;5.66;71.39
40954;BME280;26686;50.130;8.710;2023-03-08T01:27:41;98660.78;;;5.61;71.74
40954;BME280;26686;50.130;8.710;2023-03-08T01:32:42;98654.53;;;5.62;71.54
40954;BME280;26686;50.130;8.710;2023-03-08T01:37:44;98655.50;;;5.61;70.82
40954;BME280;26686;50.130;8.710;2023-03-08T01:42:46;98642.16;;;5.63;70.89
40954;BME280;26686;50.130;8.710;2023-03-08T01:47:47;98627.44;;;5.60;70.59
40954;BME280;26686;50.130;8.710;2023-03-08T01:52:51;98626.84;;;5.57;70.06
40954;BME280;26686;50.130;8.710;2023-03-08T01:57:54;98626.97;;;5.55;69.96
40954;BME280;26686;50.130;8.710;2023-03-08T02:03:01;98617.03;;;5.59;70.77
40954;BME280;26686;50.130;8.710;2023-03-08T02:08:04;98610.13;;;5.68;70.37
40954;BME280;26686;50.130;8.710;2023-03-08T02:13:07;98605.94;;;5.75;69.80
40954;BME280;26686;50.130;8.710;2023-03-08T02:18:09;98599.03;;;5.74;70.86
40954;BME280;26686;50.130;8.710;2023-03-08T02:23:12;98586.94;;;5.81;70.64
40954;BME280;26686;50.130;8.710;2023-03-08T02:28:14;98586.78;;;5.73;71.28
40954;BME280;26686;50.130;8.710;2023-03-08T02:33:16;98572.44;;;5.65;71.52
40954;BME280;26686;50.130;8.710;2023-03-08T02:38:19;98576.50;;;5.70;71.75
40954;BME280;26686;50.130;8.710;2023-03-08T02:43:21;98553.25;;;5.63;71.73
40954;BME280;26686;50.130;8.710;2023-03-08T02:48:22;98553.94;;;5.56;72.88
40954;BME280;26686;50.130;8.710;2023-03-08T02:53:23;98570.59;;;5.56;72.15
40954;BME280;26686;50.130;8.710;2023-03-08T02:58:25;98558.09;;;5.58;72.36
40954;BME280;26686;50.130;8.710;2023-03-08T03:03:27;98542.78;;;5.52;73.27
40954;BME280;26686;50.130;8.710;2023-03-08T03:08:29;98535.72;;;5.53;74.11
40954;BME280;26686;50.130;8.710;2023-03-08T03:13:31;98539.47;;;5.50;74.49
40954;BME280;26686;50.130;8.710;2023-03-08T03:18:32;98541.53;;;5.46;73.99
40954;BME280;26686;50.130;8.710;2023-03-08T03:23:34;98542.78;;;5.52;74.28
40954;BME280;26686;50.130;8.710;2023-03-08T03:28:36;98534.19;;;5.50;74.22
40954;BME280;26686;50.130;8.710;2023-03-08T03:33:37;98536.50;;;5.43;74.11
40954;BME280;26686;50.130;8.710;2023-03-08T03:38:39;98534.59;;;5.45;73.85
40954;BME280;26686;50.130;8.710;2023-03-08T03:43:41;98526.53;;;5.47;73.99
40954;BME280;26686;50.130;8.710;2023-03-08T03:48:43;98535.88;;;5.51;73.69
40954;BME280;26686;50.130;8.710;2023-03-08T03:53:45;98531.81;;;5.57;73.99
40954;BME280;26686;50.130;8.710;2023-03-08T03:58:47;98533.91;;;5.53;74.55
40954;BME280;26686;50.130;8.710;2023-03-08T04:03:49;98525.03;;;5.54;74.05
40954;BME280;26686;50.130;8.710;2023-03-08T04:08:53;98517.19;;;5.43;73.05
40954;BME280;26686;50.130;8.710;2023-03-08T04:13:56;98515.44;;;5.53;73.52
40954;BME280;26686;50.130;8.710;2023-03-08T04:18:59;98511.50;;;5.38;71.58
40954;BME280;26686;50.130;8.710;2023-03-08T04:24:01;98509.13;;;5.35;71.06
40954;BME280;26686;50.130;8.710;2023-03-08T04:29:03;98497.19;;;5.40;72.76
40954;BME280;26686;50.130;8.710;2023-03-08T04:34:06;98496.53;;;5.48;72.52
40954;BME280;26686;50.130;8.710;2023-03-08T04:39:07;98491.34;;;5.37;71.05
40954;BME280;26686;50.130;8.710;2023-03-08T04:44:09;98489.94;;;5.32;72.72
40954;BME280;26686;50.130;8.710;2023-03-08T04:49:10;98472.88;;;5.37;72.84
40954;BME280;26686;50.130;8.710;2023-03-08T04:54:12;98464.84;;;5.38;72.19
40954;BME280;26686;50.130;8.710;2023-03-08T04:59:13;98469.69;;;5.43;71.76
40954;BME280;26686;50.130;8.710;2023-03-08T05:04:14;98463.06;;;5.48;71.57
40954;BME280;26686;50.130;8.710;2023-03-08T05:09:16;98452.63;;;5.47;72.70
40954;BME280;26686;50.130;8.710;2023-03-08T05:14:17;98450.41;;;5.52;71.18
40954;BME280;26686;50.130;8.710;2023-03-08T05:19:19;98442.78;;;5.49;71.33
40954;BME280;26686;50.130;8.710;2023-03-08T05:24:20;98441.00;;;5.49;70.98
40954;BME280;26686;50.130;8.710;2023-03-08T05:29:22;98438.34;;;5.49;70.89
40954;BME280;26686;50.130;8.710;2023-03-08T05:34:23;98431.34;;;5.39;70.59
40954;BME280;26686;50.130;8.710;2023-03-08T05:39:25;98425.13;;;5.40;70.44
40954;BME280;26686;50.130;8.710;2023-03-08T05:44:26;98421.19;;;5.24;69.13
40954;BME280;26686;50.130;8.710;2023-03-08T05:49:29;98401.44;;;5.09;69.53
40954;BME280;26686;50.130;8.710;2023-03-08T05:54:30;98406.97;;;5.06;70.26
40954;BME280;26686;50.130;8.710;2023-03-08T05:59:31;98402.78;;;4.63;72.46
40954;BME280;26686;50.130;8.710;2023-03-08T06:04:33;98401.03;;;4.73;73.40
40954;BME280;26686;50.130;8.710;2023-03-08T06:09:34;98399.22;;;4.73;73.01
40954;BME280;26686;50.130;8.710;2023-03-08T06:14:36;98409.75;;;4.73;73.86
40954;BME280;26686;50.130;8.710;2023-03-08T06:19:37;98428.78;;;4.56;74.00
40954;BME280;26686;50.130;8.710;2023-03-08T06:24:39;98407.91;;;4.64;75.38
40954;BME280;26686;50.130;8.710;2023-03-08T06:29:40;98404.34;;;4.75;75.35
40954;BME280;26686;50.130;8.710;2023-03-08T06:34:42;98412.91;;;4.67;74.56
40954;BME280;26686;50.130;8.710;2023-03-08T06:39:43;98414.44;;;4.70;75.40
40954;BME280;26686;50.130;8.710;2023-03-08T06:44:44;98399.16;;;4.64;75.85
40954;BME280;26686;50.130;8.710;2023-03-08T06:49:46;98395.81;;;4.62;75.60
40954;BME280;26686;50.130;8.710;2023-03-08T06:54:47;98384.72;;;4.58;75.38
40954;BME280;26686;50.130;8.710;2023-03-08T06:59:48;98374.06;;;4.59;75.74
40954;BME280;26686;50.130;8.710;2023-03-08T07:04:50;98368.06;;;4.57;76.44
40954;BME280;26686;50.130;8.710;2023-03-08T07:09:51;98376.50;;;4.51;75.93
40954;BME280;26686;50.130;8.710;2023-03-08T07:14:53;98370.84;;;4.35;77.19
40954;BME280;26686;50.130;8.710;2023-03-08T07:19:54;98361.03;;;4.37;77.71
40954;BME280;26686;50.130;8.710;2023-03-08T07:24:56;98339.97;;;4.37;78.00
40954;BME280;26686;50.130;8.710;2023-03-08T07:29:57;98351.09;;;4.50;77.56
40954;BME280;26686;50.130;8.710;2023-03-08T07:34:59;98335.19;;;4.31;79.02
40954;BME280;26686;50.130;8.710;2023-03-08T07:40:00;98320.72;;;4.15;79.00
40954;BME280;26686;50.130;8.710;2023-03-08T07:45:02;98304.47;;;4.10;80.10
40954;BME280;26686;50.130;8.710;2023-03-08T07:50:04;98299.59;;;4.05;79.94
40954;BME280;26686;50.130;8.710;2023-03-08T07:55:06;98282.28;;;4.13;80.37
40954;BME280;26686;50.130;8.710;2023-03-08T08:00:08;98267.22;;;4.15;80.14
40954;BME280;26686;50.130;8.710;2023-03-08T08:05:10;98259.72;;;4.10;80.67
40954;BME280;26686;50.130;8.710;2023-03-08T08:10:11;98261.69;;;4.18;80.04
40954;BME280;26686;50.130;8.710;2023-03-08T08:15:13;98256.97;;;4.21;79.70
40954;BME280;26686;50.130;8.710;2023-03-08T08:20:15;98251.34;;;4.05;80.28
40954;BME280;26686;50.130;8.710;2023-03-08T08:25:16;98217.44;;;4.12;80.59
40954;BME280;26686;50.130;8.710;2023-03-08T08:30:18;98210.63;;;4.09;80.14
40954;BME280;26686;50.130;8.710;2023-03-08T08:35:19;98199.69;;;4.04;80.84
40954;BME280;26686;50.130;8.710;2023-03-08T08:40:21;98204.94;;;4.04;80.57
40954;BME280;26686;50.130;8.710;2023-03-08T08:45:22;98195.38;;;4.03;79.90
40954;BME280;26686;50.130;8.710;2023-03-08T08:50:24;98197.31;;;4.01;79.93
40954;BME280;26686;50.130;8.710;2023-03-08T08:55:25;98181.53;;;4.01;80.05
40954;BME280;26686;50.130;8.710;2023-03-08T09:00:26;98176.50;;;3.98;79.75
40954;BME280;26686;50.130;8.710;2023-03-08T09:05:28;98159.47;;;4.02;79.49
40954;BME280;26686;50.130;8.710;2023-03-08T09:10:32;98146.75;;;4.07;79.35
40954;BME280;26686;50.130;8.710;2023-03-08T09:15:34;98140.22;;;4.11;78.62
40954;BME280;26686;50.130;8.710;2023-03-08T09:20:37;98125.84;;;4.15;78.61
40954;BME280;26686;50.130;8.710;2023-03-08T09:25:38;98116.94;;;4.06;78.51
40954;BME280;26686;50.130;8.710;2023-03-08T09:30:40;98137.19;;;4.06;78.80
40954;BME280;26686;50.130;8.710;2023-03-08T09:35:41;98121.06;;;3.99;79.59
40954;BME280;26686;50.130;8.710;2023-03-08T09:40:51;98117.66;;;4.09;78.98
40954;BME280;26686;50.130;8.710;2023-03-08T09:45:55;98122.47;;;3.94;79.42
40954;BME280;26686;50.130;8.710;2023-03-08T09:51:01;98110.44;;;4.01;79.23
40954;BME280;26686;50.130;8.710;2023-03-08T09:56:32;98109.72;;;3.99;80.00
40954;BME280;26686;50.130;8.710;2023-03-08T10:02:01;98114.72;;;4.02;79.36
40954;BME280;26686;50.130;8.710;2023-03-08T10:18:28;98073.81;;;3.98;80.05
40954;BME280;26686;50.130;8.710;2023-03-08T10:23:31;98057.66;;;4.02;79.40
40954;BME280;26686;50.130;8.710;2023-03-08T10:28:33;98055.97;;;4.01;80.09
40954;BME280;26686;50.130;8.710;2023-03-08T10:33:35;98064.81;;;4.00;80.28
40954;BME280;26686;50.130;8.710;2023-03-08T10:38:37;98046.69;;;4.07;80.35
40954;BME280;26686;50.130;8.710;2023-03-08T10:43:48;98043.66;;;4.12;79.99
40954;BME280;26686;50.130;8.710;2023-03-08T10:48:50;98032.72;;;4.16;80.14
40954;BME280;26686;50.130;8.710;2023-03-08T10:53:56;98019.53;;;4.26;80.17
40954;BME280;26686;50.130;8.710;2023-03-08T10:58:58;98006.09;;;4.29;80.20
40954;BME280;26686;50.130;8.710;2023-03-08T11:04:14;98000.28;;;4.25;80.69
40954;BME280;26686;50.130;8.710;2023-03-08T11:09:26;97991.69;;;4.23;80.55
40954;BME280;26686;50.130;8.710;2023-03-08T11:14:28;97984.19;;;4.29;80.27
40954;BME280;26686;50.130;8.710;2023-03-08T11:36:05;97972.41;;;4.33;81.21
40954;BME280;26686;50.130;8.710;2023-03-08T11:57:24;97946.72;;;4.64;81.72
40954;BME280;26686;50.130;8.710;2023-03-08T12:02:29;97926.47;;;4.65;81.87
40954;BME280;26686;50.130;8.710;2023-03-08T12:07:36;97937.97;;;4.73;82.02
40954;BME280;26686;50.130;8.710;2023-03-08T12:12:43;97932.78;;;4.82;82.27
40954;BME280;26686;50.130;8.710;2023-03-08T12:17:52;97922.81;;;4.85;81.85
40954;BME280;26686;50.130;8.710;2023-03-08T12:23:00;97910.28;;;4.87;82.59
40954;BME280;26686;50.130;8.710;2023-03-08T12:28:22;97915.56;;;4.87;82.66
40954;BME280;26686;50.130;8.710;2023-03-08T12:33:26;97898.19;;;4.94;81.95
40954;BME280;26686;50.130;8.710;2023-03-08T12:38:43;97885.84;;;4.95;82.85
40954;BME280;26686;50.130;8.710;2023-03-08T12:43:46;97896.09;;;4.98;83.51
40954;BME280;26686;50.130;8.710;2023-03-08T12:48:48;97901.63;;;5.05;83.25
40954;BME280;26686;50.130;8.710;2023-03-08T12:58:55;97887.75;;;5.03;84.07
40954;BME280;26686;50.130;8.710;2023-03-08T13:03:56;97875.03;;;5.16;84.11
40954;BME280;26686;50.130;8.710;2023-03-08T13:09:24;97864.06;;;5.21;83.71
40954;BME280;26686;50.130;8.710;2023-03-08T13:19:41;97848.53;;;5.18;83.48
40954;BME280;26686;50.130;8.710;2023-03-08T13:24:50;97871.00;;;5.22;83.93
40954;BME280;26686;50.130;8.710;2023-03-08T13:30:11;97876.22;;;5.31;84.86
40954;BME280;26686;50.130;8.710;2023-03-08T13:35:16;97864.97;;;5.29;85.04
40954;BME280;26686;50.130;8.710;2023-03-08T13:40:20;97873.16;;;5.36;84.74
40954;BME280;26686;50.130;8.710;2023-03-08T13:45:22;97870.34;;;5.38;84.61
40954;BME280;26686;50.130;8.710;2023-03-08T13:50:28;97878.19;;;5.47;84.84
40954;BME280;26686;50.130;8.710;2023-03-08T13:55:38;97869.00;;;5.52;84.32
40954;BME280;26686;50.130;8.710;2023-03-08T14:00:39;97873.00;;;5.56;84.70
40954;BME280;26686;50.130;8.710;2023-03-08T14:05:41;97863.28;;;5.56;84.73
40954;BME280;26686;50.130;8.710;2023-03-08T14:10:47;97851.03;;;5.55;85.58
40954;BME280;26686;50.130;8.710;2023-03-08T14:15:58;97851.28;;;5.62;85.40
40954;BME280;26686;50.130;8.710;2023-03-08T14:21:16;97850.75;;;5.58;85.66
40954;BME280;26686;50.130;8.710;2023-03-08T14:31:30;97844.59;;;5.68;86.56
40954;BME280;26686;50.130;8.710;2023-03-08T14:36:34;97842.91;;;5.66;86.14
40954;BME280;26686;50.130;8.710;2023-03-08T14:41:36;97829.47;;;5.78;86.07
40954;BME280;26686;50.130;8.710;2023-03-08T14:46:37;97816.97;;;5.80;86.20
40954;BME280;26686;50.130;8.710;2023-03-08T14:51:41;97806.44;;;5.88;85.19
40954;BME280;26686;50.130;8.710;2023-03-08T14:56:43;97792.63;;;5.94;85.12
40954;BME280;26686;50.130;8.710;2023-03-08T15:01:46;97787.00;;;5.89;85.49
40954;BME280;26686;50.130;8.710;2023-03-08T15:06:49;97771.81;;;5.91;85.90
40954;BME280;26686;50.130;8.710;2023-03-08T15:11:51;97756.06;;;5.99;84.82
40954;BME280;26686;50.130;8.710;2023-03-08T15:16:54;97750.63;;;6.01;85.13
40954;BME280;26686;50.130;8.710;2023-03-08T15:21:55;97748.00;;;6.01;85.68
40954;BME280;26686;50.130;8.710;2023-03-08T15:26:57;97749.19;;;6.07;86.04
40954;BME280;26686;50.130;8.710;2023-03-08T15:31:58;97757.47;;;6.12;84.98
40954;BME280;26686;50.130;8.710;2023-03-08T15:37:00;97745.94;;;6.21;84.15
40954;BME280;26686;50.130;8.710;2023-03-08T15:42:01;97734.34;;;6.14;84.16
40954;BME280;26686;50.130;8.710;2023-03-08T15:47:03;97739.94;;;6.11;85.09
40954;BME280;26686;50.130;8.710;2023-03-08T15:52:05;97731.25;;;6.18;85.51
40954;BME280;26686;50.130;8.710;2023-03-08T15:57:08;97742.03;;;6.25;85.22
40954;BME280;26686;50.130;8.710;2023-03-08T16:02:14;97747.13;;;6.18;84.98
40954;BME280;26686;50.130;8.710;2023-03-08T16:07:17;97757.88;;;6.25;85.06
40954;BME280;26686;50.130;8.710;2023-03-08T16:12:19;97755.13;;;6.09;85.64
40954;BME280;26686;50.130;8.710;2023-03-08T16:17:21;97744.25;;;6.12;85.32
40954;BME280;26686;50.130;8.710;2023-03-08T16:22:23;97733.38;;;6.15;85.39
40954;BME280;26686;50.130;8.710;2023-03-08T16:27:28;97720.16;;;6.15;86.35
40954;BME280;26686;50.130;8.710;2023-03-08T16:32:30;97715.28;;;6.28;85.92
40954;BME280;26686;50.130;8.710;2023-03-08T16:37:32;97722.38;;;6.28;85.90
40954;BME280;26686;50.130;8.710;2023-03-08T16:42:33;97718.91;;;6.27;85.76
40954;BME280;26686;50.130;8.710;2023-03-08T16:47:35;97722.22;;;6.29;85.81
40954;BME280;26686;50.130;8.710;2023-03-08T16:52:38;97745.00;;;6.30;85.56
40954;BME280;26686;50.130;8.710;2023-03-08T16:57:39;97724.53;;;5.98;87.44
40954;BME280;26686;50.130;8.710;2023-03-08T17:02:41;97746.09;;;6.11;87.49
40954;BME280;26686;50.130;8.710;2023-03-08T17:07:45;97736.03;;;6.15;87.63
40954;BME280;26686;50.130;8.710;2023-03-08T17:12:47;97747.13;;;6.18;86.38
40954;BME280;26686;50.130;8.710;2023-03-08T17:17:48;97723.28;;;6.10;86.68
40954;BME280;26686;50.130;8.710;2023-03-08T17:22:49;97769.06;;;6.19;86.07
40954;BME280;26686;50.130;8.710;2023-03-08T17:27:51;97756.09;;;6.08;86.58
40954;BME280;26686;50.130;8.710;2023-03-08T17:32:52;97752.19;;;6.12;87.35
40954;BME280;26686;50.130;8.710;2023-03-08T17:37:53;97757.53;;;6.20;88.86
40954;BME280;26686;50.130;8.710;2023-03-08T17:42:55;97757.25;;;6.31;90.46
40954;BME280;26686;50.130;8.710;2023-03-08T17:48:00;97766.03;;;6.40;92.81
40954;BME280;26686;50.130;8.710;2023-03-08T17:53:03;97738.00;;;6.55;95.90
40954;BME280;26686;50.130;8.710;2023-03-08T17:58:04;97745.84;;;6.73;96.62
40954;BME280;26686;50.130;8.710;2023-03-08T18:03:05;97740.28;;;6.85;95.73
40954;BME280;26686;50.130;8.710;2023-03-08T18:08:07;97741.63;;;6.97;94.98
40954;BME280;26686;50.130;8.710;2023-03-08T18:13:09;97737.19;;;7.06;94.75
40954;BME280;26686;50.130;8.710;2023-03-08T18:18:11;97734.72;;;7.21;94.89
40954;BME280;26686;50.130;8.710;2023-03-08T18:23:12;97740.00;;;7.21;96.61
40954;BME280;26686;50.130;8.710;2023-03-08T18:28:14;97733.06;;;7.28;96.08
40954;BME280;26686;50.130;8.710;2023-03-08T18:33:18;97744.63;;;7.35;94.98
40954;BME280;26686;50.130;8.710;2023-03-08T18:38:19;97751.25;;;7.39;95.26
40954;BME280;26686;50.130;8.710;2023-03-08T18:43:21;97756.38;;;7.41;95.97
40954;BME280;26686;50.130;8.710;2023-03-08T18:48:23;97756.88;;;7.44;96.73
40954;BME280;26686;50.130;8.710;2023-03-08T18:53:24;97764.19;;;7.51;97.04
40954;BME280;26686;50.130;8.710;2023-03-08T18:58:26;97778.06;;;7.53;97.79
40954;BME280;26686;50.130;8.710;2023-03-08T19:03:29;97780.41;;;7.48;98.42
40954;BME280;26686;50.130;8.710;2023-03-08T19:08:31;97767.78;;;7.41;99.77
40954;BME280;26686;50.130;8.710;2023-03-08T19:13:32;97770.44;;;7.41;100.00
40954;BME280;26686;50.130;8.710;2023-03-08T19:18:34;97769.81;;;7.48;99.67
40954;BME280;26686;50.130;8.710;2023-03-08T19:23:36;97771.13;;;7.60;98.87
40954;BME280;26686;50.130;8.710;2023-03-08T19:28:37;97769.16;;;7.70;98.00
40954;BME280;26686;50.130;8.710;2023-03-08T19:33:39;97761.22;;;7.70;97.97
40954;BME280;26686;50.130;8.710;2023-03-08T19:38:42;97770.94;;;7.70;97.05
40954;BME280;26686;50.130;8.710;2023-03-08T19:43:45;97764.84;;;7.69;96.78
40954;BME280;26686;50.130;8.710;2023-03-08T19:48:47;97762.53;;;7.66;96.92
40954;BME280;26686;50.130;8.710;2023-03-08T19:53:49;97754.41;;;7.68;96.86
40954;BME280;26686;50.130;8.710;2023-03-08T19:58:52;97750.59;;;7.62;96.74
40954;BME280;26686;50.130;8.710;2023-03-08T20:03:56;97746.47;;;7.59;96.41
40954;BME280;26686;50.130;8.710;2023-03-08T20:08:59;97759.53;;;7.61;96.01
40954;BME280;26686;50.130;8.710;2023-03-08T20:14:01;97751.75;;;7.59;96.49
40954;BME280;26686;50.130;8.710;2023-03-08T20:19:03;97752.59;;;7.60;95.89
40954;BME280;26686;50.130;8.710;2023-03-08T20:24:05;97767.81;;;7.66;95.29
40954;BME280;26686;50.130;8.710;2023-03-08T20:29:07;97765.81;;;7.68;95.39
40954;BME280;26686;50.130;8.710;2023-03-08T20:34:08;97764.50;;;7.72;95.90
40954;BME280;26686;50.130;8.710;2023-03-08T20:39:09;97770.13;;;7.77;95.28
40954;BME280;26686;50.130;8.710;2023-03-08T20:44:11;97771.78;;;7.78;95.31
40954;BME280;26686;50.130;8.710;2023-03-08T20:49:13;97764.66;;;7.79;95.78
40954;BME280;26686;50.130;8.710;2023-03-08T20:54:17;97777.44;;;7.84;95.65
40954;BME280;26686;50.130;8.710;2023-03-08T20:59:19;97781.38;;;7.88;95.50
40954;BME280;26686;50.130;8.710;2023-03-08T21:04:23;97777.41;;;7.92;95.41
40954;BME280;26686;50.130;8.710;2023-03-08T21:09:24;97758.69;;;7.93;95.55
40954;BME280;26686;50.130;8.710;2023-03-08T21:14:26;97748.91;;;7.94;96.18
40954;BME280;26686;50.130;8.710;2023-03-08T21:19:29;97744.47;;;7.94;96.04
40954;BME280;26686;50.130;8.710;2023-03-08T21:24:30;97737.00;;;7.98;95.92
40954;BME280;26686;50.130;8.710;2023-03-08T21:29:31;97728.56;;;7.94;95.93
40954;BME280;26686;50.130;8.710;2023-03-08T21:34:33;97716.94;;;7.95;95.39
40954;BME280;26686;50.130;8.710;2023-03-08T21:39:34;97713.16;;;7.98;96.22
40954;BME280;26686;50.130;8.710;2023-03-08T21:44:36;97706.19;;;7.97;96.21
40954;BME280;26686;50.130;8.710;2023-03-08T21:49:37;97688.16;;;7.92;95.79
40954;BME280;26686;50.130;8.710;2023-03-08T21:54:39;97695.94;;;7.94;95.65
40954;BME280;26686;50.130;8.710;2023-03-08T21:59:40;97682.03;;;7.92;95.40
40954;BME280;26686;50.130;8.710;2023-03-08T22:04:42;97690.31;;;7.89;95.28
40954;BME280;26686;50.130;8.710;2023-03-08T22:09:43;97672.78;;;7.88;95.82
40954;BME280;26686;50.130;8.710;2023-03-08T22:14:48;97668.63;;;7.93;95.22
40954;BME280;26686;50.130;8.710;2023-03-08T22:19:50;97672.44;;;7.99;95.77
40954;BME280;26686;50.130;8.710;2023-03-08T22:24:52;97647.09;;;7.96;95.42
40954;BME280;26686;50.130;8.710;2023-03-08T22:29:53;97650.56;;;7.97;95.41
40954;BME280;26686;50.130;8.710;2023-03-08T22:34:55;97647.59;;;8.00;95.44
40954;BME280;26686;50.130;8.710;2023-03-08T22:39:57;97643.13;;;8.01;95.58
40954;BME280;26686;50.130;8.710;2023-03-08T22:44:58;97624.94;;;7.89;96.19
40954;BME280;26686;50.130;8.710;2023-03-08T22:50:00;97643.06;;;8.09;95.89
40954;BME280;26686;50.130;8.710;2023-03-08T22:55:02;97636.78;;;8.10;95.93
40954;BME280;26686;50.130;8.710;2023-03-08T23:00:05;97618.06;;;8.11;95.50
40954;BME280;26686;50.130;8.710;2023-03-08T23:05:17;97598.88;;;8.09;95.54
40954;BME280;26686;50.130;8.710;2023-03-08T23:10:19;97585.81;;;8.08;95.37
40954;BME280;26686;50.130;8.710;2023-03-08T23:15:21;97578.66;;;8.08;95.91
40954;BME280;26686;50.130;8.710;2023-03-08T23:20:22;97569.38;;;8.12;96.26
40954;BME280;26686;50.130;8.710;2023-03-08T23:25:25;97575.75;;;8.26;97.07
40954;BME280;26686;50.130;8.710;2023-03-08T23:30:26;97572.13;;;8.27;96.58
40954;BME280;26686;50.130;8.710;2023-03-08T23:35:28;97550.25;;;8.25;96.97
40954;BME280;26686;50.130;8.710;2023-03-08T23:40:29;97543.44;;;8.31;97.46
40954;BME280;26686;50.130;8.710;2023-03-08T23:45:31;97547.00;;;8.46;97.39
40954;BME280;26686;50.130;8.710;2023-03-08T23:50:32;97525.16;;;8.44;97.36
40954;BME280;26686;50.130;8.710;2023-03-08T23:55:38;97485.38;;;8.21;96.75
